createdAt,value
2018-02-21T00:00:52.526Z,89.57
2018-02-21T00:03:19.987Z,91.30
2018-02-21T00:05:47.461Z,101.25
2018-02-21T00:08:14.946Z,94.53
2018-02-21T00:10:42.435Z,84.78
2018-02-21T00:13:10.684Z,86.47
2018-02-21T00:15:38.176Z,97.03
2018-02-21T00:18:06.419Z,106.75
2018-02-21T00:20:33.901Z,90.97
2018-02-21T00:23:02.141Z,90.23
2018-02-21T00:25:29.630Z,101.65
2018-02-21T00:27:57.875Z,95.53
2018-02-21T00:30:25.375Z,100.18
2018-02-21T00:32:53.626Z,95.63
2018-02-21T00:35:21.113Z,101.50
2018-02-21T00:37:50.171Z,96.97
2018-02-21T00:40:17.675Z,102.68
2018-02-21T00:42:45.147Z,96.70
2018-02-21T00:45:12.615Z,99.78
2018-02-21T00:47:40.103Z,102.10
2018-02-21T00:50:07.572Z,93.87
2018-02-21T00:52:35.077Z,105.68
2018-02-21T00:55:02.559Z,89.32
2018-02-21T00:57:30.047Z,92.25
2018-02-21T00:59:57.522Z,93.87
2018-02-21T01:02:25.811Z,88.22
2018-02-21T01:04:54.077Z,83.43
2018-02-21T01:07:22.343Z,91.18
2018-02-21T01:09:49.818Z,87.00
2018-02-21T01:12:18.087Z,90.33
2018-02-21T01:14:46.339Z,96.28
2018-02-21T01:17:13.832Z,96.93
2018-02-21T01:19:42.075Z,96.55
2018-02-21T01:22:09.568Z,86.57
2018-02-21T01:24:37.811Z,95.93
2018-02-21T01:27:05.297Z,102.43
2018-02-21T01:29:33.547Z,87.57
2018-02-21T01:32:01.040Z,88.00
2018-02-21T01:34:29.269Z,77.68
2018-02-21T01:36:56.749Z,89.72
2018-02-21T01:39:24.218Z,89.57
2018-02-21T01:41:52.558Z,94.15
2018-02-21T01:44:20.032Z,95.12
2018-02-21T01:46:47.509Z,93.28
2018-02-21T01:49:15.747Z,97.03
2018-02-21T01:51:43.231Z,93.28
2018-02-21T01:54:10.702Z,95.78
2018-02-21T01:56:38.948Z,78.12
2018-02-21T01:59:06.430Z,83.93
2018-02-21T02:01:33.911Z,94.87
2018-02-21T02:04:01.388Z,82.77
2018-02-21T02:06:28.861Z,92.35
2018-02-21T02:08:56.342Z,83.47
2018-02-21T02:11:24.658Z,87.43
2018-02-21T02:13:52.894Z,77.12
2018-02-21T02:16:20.381Z,70.28
2018-02-21T02:18:48.618Z,76.55
2018-02-21T02:21:16.094Z,81.87
2018-02-21T02:23:43.557Z,75.40
2018-02-21T02:26:11.055Z,74.32
2018-02-21T02:28:38.951Z,81.32
2018-02-21T02:31:06.457Z,74.10
2018-02-21T02:33:34.722Z,74.03
2018-02-21T02:36:02.186Z,76.97
2018-02-21T02:38:39.268Z,76.00
2018-02-21T02:41:06.778Z,77.28
2018-02-21T02:43:34.259Z,76.12
2018-02-21T02:46:01.741Z,78.75
2018-02-21T02:48:29.227Z,85.40
2018-02-21T02:50:56.705Z,83.00
2018-02-21T02:53:24.192Z,95.10
2018-02-21T02:55:52.436Z,83.22
2018-02-21T02:58:19.927Z,79.97
2018-02-21T03:00:47.402Z,78.93
2018-02-21T03:03:14.894Z,70.72
2018-02-21T03:05:42.364Z,78.10
2018-02-21T03:08:09.854Z,71.72
2018-02-21T03:10:37.321Z,71.55
2018-02-21T03:13:04.816Z,69.12
2018-02-21T03:15:33.066Z,84.68
2018-02-21T03:18:00.552Z,82.00
2018-02-21T03:20:28.797Z,77.20
2018-02-21T03:22:56.278Z,78.68
2018-02-21T03:25:23.754Z,74.78
2018-02-21T03:27:51.242Z,79.35
2018-02-21T03:30:18.732Z,81.12
2018-02-21T03:32:46.210Z,83.53
2018-02-21T03:35:14.446Z,72.72
2018-02-21T03:37:41.944Z,72.15
2018-02-21T03:40:10.246Z,81.85
2018-02-21T03:42:37.734Z,72.32
2018-02-21T03:45:05.218Z,83.35
2018-02-21T03:47:32.692Z,69.07
2018-02-21T03:50:00.928Z,75.65
2018-02-21T03:52:28.415Z,73.62
2018-02-21T03:54:55.891Z,68.90
2018-02-21T03:57:24.137Z,78.40
2018-02-21T03:59:51.609Z,78.40
2018-02-21T04:02:19.098Z,71.50
2018-02-21T04:04:46.580Z,69.30
2018-02-21T04:07:14.060Z,68.70
2018-02-21T04:09:41.518Z,75.62
2018-02-21T04:12:09.011Z,72.12
2018-02-21T04:14:36.473Z,70.25
2018-02-21T04:17:04.726Z,74.05
2018-02-21T04:19:32.203Z,81.70
2018-02-21T04:22:00.451Z,73.65
2018-02-21T04:24:27.912Z,77.78
2018-02-21T04:26:55.399Z,73.85
2018-02-21T04:29:23.645Z,79.65
2018-02-21T04:31:51.118Z,71.93
2018-02-21T04:34:18.590Z,71.07
2018-02-21T04:36:46.825Z,76.65
2018-02-21T04:39:14.307Z,67.15
2018-02-21T04:41:41.806Z,62.80
2018-02-21T04:44:09.283Z,72.78
2018-02-21T04:46:36.759Z,76.65
2018-02-21T04:49:04.234Z,65.53
2018-02-21T04:51:32.575Z,72.20
2018-02-21T04:54:00.064Z,70.07
2018-02-21T04:56:33.352Z,73.90
2018-02-21T04:59:21.319Z,65.85
2018-02-21T05:01:48.783Z,71.57
2018-02-21T05:04:17.024Z,71.43
2018-02-21T05:06:44.497Z,91.20
2018-02-21T05:09:11.984Z,87.43
2018-02-21T05:11:39.458Z,89.80
2018-02-21T05:14:06.948Z,76.72
2018-02-21T05:16:34.470Z,77.28
2018-02-21T05:19:01.898Z,67.65
2018-02-21T05:21:29.379Z,65.55
2018-02-21T05:23:56.876Z,66.93
2018-02-21T05:26:24.352Z,75.55
2018-02-21T05:28:51.831Z,78.62
2018-02-21T05:31:19.311Z,82.07
2018-02-21T05:33:47.557Z,80.93
2018-02-21T05:36:15.044Z,71.07
2018-02-21T05:38:42.522Z,69.37
2018-02-21T05:41:10.001Z,68.70
2018-02-21T05:43:37.583Z,65.75
2018-02-21T05:46:05.046Z,69.50
2018-02-21T05:48:32.525Z,70.28
2018-02-21T05:51:00.761Z,61.67
2018-02-21T05:53:28.238Z,52.88
2018-02-21T05:55:55.713Z,62.17
2018-02-21T05:58:24.442Z,51.72
2018-02-21T06:00:51.918Z,60.38
2018-02-21T06:03:20.152Z,61.20
2018-02-21T06:05:47.642Z,59.85
2018-02-21T06:08:15.122Z,63.00
2018-02-21T06:10:42.596Z,50.63
2018-02-21T06:13:10.070Z,59.88
2018-02-21T06:15:37.547Z,60.00
2018-02-21T06:18:05.781Z,57.17
2018-02-21T06:20:33.260Z,58.90
2018-02-21T06:23:01.508Z,61.60
2018-02-21T06:25:28.971Z,58.17
2018-02-21T06:27:56.478Z,58.85
2018-02-21T06:30:23.950Z,58.40
2018-02-21T06:32:51.429Z,62.35
2018-02-21T06:35:18.907Z,67.62
2018-02-21T06:37:46.389Z,68.37
2018-02-21T06:40:14.634Z,73.18
2018-02-21T06:42:42.115Z,74.10
2018-02-21T06:45:09.577Z,62.88
2018-02-21T06:47:37.828Z,72.78
2018-02-21T06:50:05.294Z,86.53
2018-02-21T06:52:32.776Z,73.78
2018-02-21T06:55:01.012Z,74.93
2018-02-21T06:57:29.199Z,63.30
2018-02-21T06:59:56.679Z,67.85
2018-02-21T07:02:34.741Z,64.70
2018-02-21T07:05:02.215Z,71.07
2018-02-21T07:07:29.694Z,73.57
2018-02-21T07:09:57.933Z,69.07
2018-02-21T07:12:25.416Z,59.33
2018-02-21T07:14:56.042Z,70.70
2018-02-21T07:17:23.597Z,66.22
2018-02-21T07:19:51.088Z,59.60
2018-02-21T07:22:19.324Z,58.30
2018-02-21T07:24:46.825Z,62.58
2018-02-21T07:27:15.063Z,64.50
2018-02-21T07:29:42.538Z,56.17
2018-02-21T07:32:10.009Z,59.08
2018-02-21T07:34:38.265Z,62.05
2018-02-21T07:37:05.738Z,64.75
2018-02-21T07:39:33.977Z,59.55
2018-02-21T07:42:01.453Z,58.80
2018-02-21T07:44:28.938Z,55.53
2018-02-21T07:46:57.181Z,63.47
2018-02-21T07:49:24.657Z,63.30
2018-02-21T07:51:52.131Z,58.50
2018-02-21T07:54:20.376Z,61.15
2018-02-21T07:56:47.849Z,62.78
2018-02-21T07:59:15.326Z,57.53
2018-02-21T08:01:43.571Z,64.47
2018-02-21T08:04:11.041Z,57.97
2018-02-21T08:06:38.513Z,66.97
2018-02-21T08:09:06.767Z,69.68
2018-02-21T08:11:34.234Z,60.88
2018-02-21T08:14:01.729Z,62.47
2018-02-21T08:16:29.203Z,63.03
2018-02-21T08:18:56.690Z,56.40
2018-02-21T08:21:24.167Z,60.28
2018-02-21T08:23:51.651Z,63.33
2018-02-21T08:26:19.137Z,83.07
2018-02-21T08:28:46.666Z,65.30
2018-02-21T08:31:14.171Z,64.15
2018-02-21T08:33:41.654Z,62.53
2018-02-21T08:36:09.128Z,57.45
2018-02-21T08:38:37.374Z,66.28
2018-02-21T08:41:04.849Z,57.85
2018-02-21T08:43:32.336Z,59.88
2018-02-21T08:45:59.824Z,61.92
2018-02-21T08:48:27.706Z,50.33
2018-02-21T08:50:55.178Z,57.90
2018-02-21T08:53:22.660Z,61.23
2018-02-21T08:55:50.901Z,63.25
2018-02-21T08:58:18.403Z,51.45
2018-02-21T09:00:46.650Z,61.00
2018-02-21T09:03:14.135Z,53.60
2018-02-21T09:05:42.391Z,54.47
2018-02-21T09:08:09.869Z,54.63
2018-02-21T09:10:38.113Z,57.78
2018-02-21T09:13:05.594Z,45.70
2018-02-21T09:15:33.069Z,48.63
2018-02-21T09:18:01.310Z,52.55
2018-02-21T09:20:28.782Z,51.60
2018-02-21T09:22:56.242Z,51.83
2018-02-21T09:25:23.758Z,52.80
2018-02-21T09:27:51.214Z,51.90
2018-02-21T09:30:18.682Z,47.17
2018-02-21T09:32:46.149Z,56.73
2018-02-21T09:35:14.417Z,56.77
2018-02-21T09:37:41.898Z,48.07
2018-02-21T09:40:09.369Z,51.57
2018-02-21T09:42:36.829Z,57.90
2018-02-21T09:45:04.387Z,54.33
2018-02-21T09:47:31.866Z,47.70
2018-02-21T09:50:00.101Z,49.83
2018-02-21T09:52:27.562Z,52.43
2018-02-21T09:54:55.041Z,44.33
2018-02-21T09:57:22.509Z,51.57
2018-02-21T09:59:50.741Z,45.73
2018-02-21T10:02:18.201Z,52.40
2018-02-21T10:04:45.679Z,48.00
2018-02-21T10:07:13.156Z,50.50
2018-02-21T10:09:40.613Z,50.33
2018-02-21T10:12:08.849Z,48.33
2018-02-21T10:14:36.317Z,48.73
2018-02-21T10:17:03.798Z,45.20
2018-02-21T10:19:31.272Z,49.60
2018-02-21T10:21:59.508Z,54.03
2018-02-21T10:24:26.991Z,49.83
2018-02-21T10:26:54.456Z,51.83
2018-02-21T10:29:22.689Z,49.67
2018-02-21T10:31:50.155Z,48.43
2018-02-21T10:34:17.625Z,47.23
2018-02-21T10:36:45.090Z,44.53
2018-02-21T10:39:12.557Z,47.20
2018-02-21T10:41:40.016Z,46.77
2018-02-21T10:44:08.254Z,44.90
2018-02-21T10:46:35.719Z,41.33
2018-02-21T10:49:03.200Z,51.67
2018-02-21T10:51:30.661Z,46.90
2018-02-21T10:53:58.152Z,48.00
2018-02-21T10:56:25.619Z,44.70
2018-02-21T10:58:53.100Z,47.90
2018-02-21T11:01:29.285Z,46.83
2018-02-21T11:03:56.770Z,41.50
2018-02-21T11:06:25.060Z,45.60
2018-02-21T11:08:53.285Z,43.40
2018-02-21T11:11:21.522Z,50.07
2018-02-21T11:13:49.005Z,52.57
2018-02-21T11:16:16.478Z,42.40
2018-02-21T11:18:43.945Z,45.27
2018-02-21T11:21:11.417Z,52.57
2018-02-21T11:23:38.920Z,44.30
2018-02-21T11:26:07.126Z,45.70
2018-02-21T11:28:34.589Z,44.27
2018-02-21T11:31:02.070Z,43.23
2018-02-21T11:33:29.575Z,45.23
2018-02-21T11:35:57.038Z,52.73
2018-02-21T11:38:24.505Z,46.23
2018-02-21T11:40:51.991Z,44.50
2018-02-21T11:43:19.463Z,42.17
2018-02-21T11:45:46.935Z,42.33
2018-02-21T11:48:15.173Z,46.67
2018-02-21T11:50:43.419Z,41.93
2018-02-21T11:53:10.889Z,44.77
2018-02-21T11:55:38.363Z,43.57
2018-02-21T11:58:05.831Z,41.13
2018-02-21T12:00:33.310Z,42.97
2018-02-21T12:03:01.130Z,48.60
2018-02-21T12:05:28.588Z,37.00
2018-02-21T12:07:56.066Z,40.60
2018-02-21T12:10:23.572Z,46.90
2018-02-21T12:12:51.001Z,41.00
2018-02-21T12:15:18.470Z,45.60
2018-02-21T12:17:46.722Z,40.70
2018-02-21T12:20:14.206Z,44.30
2018-02-21T12:22:42.434Z,38.07
2018-02-21T12:25:09.909Z,41.10
2018-02-21T12:27:37.367Z,41.50
2018-02-21T12:30:04.847Z,39.13
2018-02-21T12:32:47.199Z,36.00
2018-02-21T12:35:14.731Z,39.67
2018-02-21T12:37:42.959Z,38.93
2018-02-21T12:40:16.223Z,37.37
2018-02-21T12:42:43.686Z,36.03
2018-02-21T12:45:11.193Z,42.83
2018-02-21T12:47:38.628Z,42.97
2018-02-21T12:50:06.159Z,34.93
2018-02-21T12:52:33.578Z,39.83
2018-02-21T12:55:01.058Z,43.90
2018-02-21T12:57:29.205Z,41.43
2018-02-21T12:59:56.689Z,38.53
2018-02-21T13:02:24.175Z,39.60
2018-02-21T13:04:51.651Z,38.23
2018-02-21T13:07:19.119Z,41.17
2018-02-21T13:09:46.607Z,38.53
2018-02-21T13:12:14.840Z,38.83
2018-02-21T13:14:42.314Z,62.33
2018-02-21T13:17:09.786Z,40.73
2018-02-21T13:19:37.247Z,38.57
2018-02-21T13:22:04.723Z,38.33
2018-02-21T13:24:32.953Z,44.80
2018-02-21T13:27:00.431Z,39.20
2018-02-21T13:29:27.903Z,41.07
2018-02-21T13:31:55.376Z,44.33
2018-02-21T13:34:23.589Z,41.40
2018-02-21T13:36:51.068Z,44.60
2018-02-21T13:39:18.591Z,37.00
2018-02-21T13:41:46.065Z,42.17
2018-02-21T13:44:13.552Z,41.13
2018-02-21T13:46:41.034Z,35.73
2018-02-21T13:49:09.286Z,40.43
2018-02-21T13:51:36.757Z,35.63
2018-02-21T13:54:04.243Z,35.07
2018-02-21T13:56:31.736Z,33.37
2018-02-21T13:58:59.211Z,37.47
2018-02-21T14:01:27.458Z,35.77
2018-02-21T14:03:54.921Z,38.73
2018-02-21T14:06:22.399Z,34.30
2018-02-21T14:08:49.871Z,32.13
2018-02-21T14:11:17.341Z,31.43
2018-02-21T14:13:44.815Z,24.90
2018-02-21T14:16:13.059Z,36.77
2018-02-21T14:18:40.541Z,29.90
2018-02-21T14:21:08.006Z,29.20
2018-02-21T14:23:36.237Z,31.13
2018-02-21T14:26:03.734Z,34.30
2018-02-21T14:28:31.981Z,28.30
2018-02-21T14:30:59.457Z,32.73
2018-02-21T14:33:26.931Z,32.90
2018-02-21T14:35:54.395Z,26.57
2018-02-21T14:38:22.627Z,31.30
2018-02-21T14:40:50.119Z,30.50
2018-02-21T14:43:18.346Z,32.37
2018-02-21T14:45:45.823Z,28.37
2018-02-21T14:48:13.292Z,29.73
2018-02-21T14:50:41.575Z,27.60
2018-02-21T14:53:09.079Z,26.20
2018-02-21T14:55:36.551Z,32.37
2018-02-21T14:58:04.039Z,27.40
2018-02-21T15:00:31.515Z,27.37
2018-02-21T15:02:58.994Z,26.50
2018-02-21T15:05:27.247Z,27.30
2018-02-21T15:07:54.731Z,27.70
2018-02-21T15:10:22.970Z,27.43
2018-02-21T15:12:50.433Z,31.43
2018-02-21T15:15:17.917Z,38.27
2018-02-21T15:17:46.198Z,37.47
2018-02-21T15:20:13.651Z,29.20
2018-02-21T15:22:41.895Z,31.53
2018-02-21T15:25:10.144Z,30.47
2018-02-21T15:27:37.623Z,40.23
2018-02-21T15:30:05.086Z,25.33
2018-02-21T15:32:32.570Z,30.30
2018-02-21T15:35:00.815Z,27.60
2018-02-21T15:37:28.814Z,25.07
2018-02-21T15:39:56.291Z,24.30
2018-02-21T15:42:24.574Z,24.57
2018-02-21T15:44:52.793Z,24.40
2018-02-21T15:47:20.266Z,28.70
2018-02-21T15:49:47.726Z,27.67
2018-02-21T15:52:21.326Z,32.20
2018-02-21T15:54:48.790Z,26.20
2018-02-21T15:57:17.060Z,30.97
2018-02-21T15:59:44.531Z,27.23
2018-02-21T16:02:12.008Z,33.50
2018-02-21T16:04:40.258Z,24.60
2018-02-21T16:07:07.742Z,26.50
2018-02-21T16:09:36.510Z,30.00
2018-02-21T16:12:03.987Z,25.00
2018-02-21T16:14:32.237Z,26.17
2018-02-21T16:16:59.700Z,26.47
2018-02-21T16:19:27.182Z,25.17
2018-02-21T16:21:55.409Z,25.70
2018-02-21T16:24:22.880Z,26.20
2018-02-21T16:26:51.140Z,26.80
2018-02-21T16:29:18.629Z,28.37
2018-02-21T16:31:46.101Z,27.90
2018-02-21T16:34:13.573Z,30.40
2018-02-21T16:36:41.061Z,27.70
2018-02-21T16:39:08.530Z,24.50
2018-02-21T16:41:36.010Z,22.20
2018-02-21T16:44:03.472Z,23.77
2018-02-21T16:46:31.062Z,24.03
2018-02-21T16:48:59.291Z,23.13
2018-02-21T16:51:26.754Z,23.97
2018-02-21T16:54:00.594Z,29.00
2018-02-21T16:56:28.833Z,26.80
2018-02-21T16:58:56.309Z,26.47
2018-02-21T17:01:24.296Z,29.53
2018-02-21T17:03:51.766Z,26.53
2018-02-21T17:06:20.037Z,27.70
2018-02-21T17:08:48.261Z,27.23
2018-02-21T17:11:15.730Z,28.80
2018-02-21T17:13:43.422Z,23.10
2018-02-21T17:16:10.908Z,32.13
2018-02-21T17:18:38.377Z,27.63
2018-02-21T17:21:05.851Z,31.00
2018-02-21T17:23:33.343Z,33.73
2018-02-21T17:26:00.879Z,24.67
2018-02-21T17:28:28.374Z,28.63
2018-02-21T17:30:55.844Z,29.53
2018-02-21T17:33:24.091Z,25.83
2018-02-21T17:35:51.560Z,25.27
2018-02-21T17:38:19.080Z,34.03
2018-02-21T17:40:52.870Z,32.83
2018-02-21T17:43:20.368Z,31.00
2018-02-21T17:45:48.173Z,26.67
2018-02-21T17:48:16.415Z,30.63
2018-02-21T17:50:43.877Z,29.03
2018-02-21T17:53:11.375Z,31.80
2018-02-21T17:55:39.594Z,31.37
2018-02-21T17:58:07.062Z,28.97
2018-02-21T18:00:34.553Z,30.80
2018-02-21T18:03:02.795Z,31.80
2018-02-21T18:05:30.265Z,29.50
2018-02-21T18:07:59.240Z,29.87
2018-02-21T18:10:26.705Z,33.53
2018-02-21T18:12:54.176Z,33.40
2018-02-21T18:15:21.640Z,33.77
2018-02-21T18:17:49.128Z,35.03
2018-02-21T18:20:16.643Z,30.60
2018-02-21T18:22:44.128Z,33.17
2018-02-21T18:25:12.582Z,29.20
2018-02-21T18:27:40.068Z,37.93
2018-02-21T18:30:08.294Z,30.80
2018-02-21T18:32:35.768Z,28.90
2018-02-21T18:35:03.230Z,31.53
2018-02-21T18:37:30.733Z,30.87
2018-02-21T18:39:58.197Z,31.77
2018-02-21T18:42:25.664Z,28.27
2018-02-21T18:44:53.130Z,27.73
2018-02-21T18:47:20.793Z,24.73
2018-02-21T18:49:48.302Z,26.90
2018-02-21T18:52:15.762Z,38.43
2018-02-21T18:54:43.227Z,45.87
2018-02-21T18:57:11.462Z,40.30
2018-02-21T18:59:38.921Z,40.33
2018-02-21T19:02:06.439Z,34.37
2018-02-21T19:04:34.669Z,34.83
2018-02-21T19:07:02.152Z,34.40
2018-02-21T19:09:30.382Z,32.40
2018-02-21T19:11:57.841Z,33.00
2018-02-21T19:14:25.309Z,39.27
2018-02-21T19:16:52.774Z,35.53
2018-02-21T19:19:20.250Z,37.30
2018-02-21T19:21:47.715Z,37.03
2018-02-21T19:24:15.251Z,37.77
2018-02-21T19:26:42.723Z,38.37
2018-02-21T19:29:10.226Z,36.80
2018-02-21T19:31:37.681Z,38.50
2018-02-21T19:34:05.162Z,40.53
2018-02-21T19:36:32.668Z,34.77
2018-02-21T19:39:01.008Z,35.83
2018-02-21T19:41:28.524Z,34.30
2018-02-21T19:43:56.755Z,32.00
2018-02-21T19:46:24.220Z,33.30
2018-02-21T19:48:51.718Z,33.27
2018-02-21T19:51:19.216Z,36.70
2018-02-21T19:53:46.686Z,33.47
2018-02-21T19:56:14.159Z,34.80
2018-02-21T19:58:41.633Z,37.30
2018-02-21T20:01:09.870Z,33.97
2018-02-21T20:03:37.341Z,35.33
2018-02-21T20:06:04.810Z,38.03
2018-02-21T20:08:32.299Z,34.67
2018-02-21T20:11:00.535Z,32.27
2018-02-21T20:13:28.015Z,35.03
2018-02-21T20:15:55.491Z,33.03
2018-02-21T20:18:23.762Z,35.40
2018-02-21T20:20:52.003Z,36.60
2018-02-21T20:23:19.512Z,37.57
2018-02-21T20:25:46.977Z,34.73
2018-02-21T20:28:14.455Z,28.90
2018-02-21T20:30:41.945Z,34.43
2018-02-21T20:33:09.771Z,32.90
2018-02-21T20:35:37.230Z,33.47
2018-02-21T20:38:04.698Z,40.33
2018-02-21T20:40:32.170Z,34.60
2018-02-21T20:42:59.654Z,32.30
2018-02-21T20:45:27.164Z,30.87
2018-02-21T20:47:54.626Z,38.67
2018-02-21T20:50:22.100Z,39.30
2018-02-21T20:52:49.568Z,38.30
2018-02-21T20:55:17.044Z,36.57
2018-02-21T20:57:44.518Z,35.43
2018-02-21T21:00:12.741Z,35.17
2018-02-21T21:02:40.206Z,36.03
2018-02-21T21:05:07.689Z,34.70
2018-02-21T21:07:35.158Z,31.93
2018-02-21T21:10:02.626Z,36.40
2018-02-21T21:12:30.859Z,38.47
2018-02-21T21:14:58.333Z,33.87
2018-02-21T21:17:25.826Z,36.73
2018-02-21T21:19:54.102Z,35.43
2018-02-21T21:22:22.399Z,34.07
2018-02-21T21:24:49.866Z,34.10
2018-02-21T21:27:17.330Z,28.67
2018-02-21T21:29:44.807Z,28.00
2018-02-21T21:32:12.284Z,29.93
2018-02-21T21:34:39.749Z,31.47
2018-02-21T21:37:07.225Z,32.50
2018-02-21T21:39:35.478Z,34.10
2018-02-21T21:42:02.933Z,30.07
2018-02-21T21:44:49.473Z,27.40
2018-02-21T21:47:16.915Z,34.50
2018-02-21T21:49:45.177Z,28.57
2018-02-21T21:52:13.437Z,28.40
2018-02-21T21:54:40.906Z,28.30
2018-02-21T21:57:08.371Z,30.10
2018-02-21T21:59:35.916Z,29.70
2018-02-21T22:02:03.376Z,31.50
2018-02-21T22:04:30.866Z,29.60
2018-02-21T22:06:59.128Z,29.80
2018-02-21T22:09:26.623Z,32.67
2018-02-21T22:11:54.081Z,27.03
2018-02-21T22:14:21.557Z,28.87
2018-02-21T22:16:49.027Z,30.23
2018-02-21T22:19:16.529Z,34.50
2018-02-21T22:21:44.771Z,28.33
2018-02-21T22:24:12.235Z,36.27
2018-02-21T22:26:39.714Z,30.50
2018-02-21T22:29:07.190Z,27.87
2018-02-21T22:31:34.657Z,34.33
2018-02-21T22:34:02.140Z,31.60
2018-02-21T22:36:29.619Z,33.03
2018-02-21T22:38:57.095Z,29.00
2018-02-21T22:41:24.567Z,34.40
2018-02-21T22:43:52.805Z,33.73
2018-02-21T22:46:20.264Z,29.70
2018-02-21T22:48:47.748Z,33.67
2018-02-21T22:51:15.228Z,23.40
2018-02-21T22:53:43.468Z,26.83
2018-02-21T22:56:10.938Z,27.70
2018-02-21T22:58:38.409Z,28.43
2018-02-21T23:01:06.640Z,29.80
2018-02-21T23:03:34.112Z,25.40
2018-02-21T23:06:01.597Z,25.57
2018-02-21T23:08:29.075Z,26.87
2018-02-21T23:10:57.320Z,25.00
2018-02-21T23:13:24.814Z,29.03
2018-02-21T23:15:53.034Z,27.80
2018-02-21T23:18:20.506Z,24.13
2018-02-21T23:20:47.991Z,27.30
2018-02-21T23:23:16.225Z,24.00
2018-02-21T23:25:43.686Z,24.20
2018-02-21T23:28:11.155Z,25.03
2018-02-21T23:30:38.638Z,28.17
2018-02-21T23:33:06.877Z,26.47
2018-02-21T23:35:34.353Z,26.50
2018-02-21T23:38:01.830Z,26.80
2018-02-21T23:40:30.070Z,24.37
2018-02-21T23:42:57.533Z,26.07
2018-02-21T23:45:25.016Z,25.00
2018-02-21T23:47:52.477Z,25.37
2018-02-21T23:50:20.721Z,24.00
2018-02-21T23:52:48.194Z,21.93
2018-02-21T23:55:15.678Z,22.40
2018-02-21T23:57:43.907Z,23.13
